Georgetown, SC

8:45 AM EST on February 10, 2016 (GMT -0500)
NERRS | | Change Station
CLOSE
Current Station
Personal Weather Station
Location: Georgetown, SC
Elevation: 2 ft
Nearby Weather Stations
Active Advisory: Flood Warning

Elev 2 ft 33.35 °N, 79.19 °W | Updated 1 hour ago

Clear
Clear
31.0 °F
Feels Like 23 °F
N
10.0
Wind Variable Wind from West
Gusts 0.0 mph

Today
High -- | Low -- °F
--% Chance of Precip.
Yesterday
High -- | Low -- °F
Precip. -- in
Pressure 30.04 in
Visibility 10.0 miles
Clouds Clear
Windchill 23 °F
Dew Point 18.0 °F
Humidity 58%
Rainfall in
Snow Depth Not available.
7:05 AM 5:56 PM
Waxing Crescent, 5% visible
METAR KGGE 101335Z AUTO 26013G19KT 10SM CLR 00/M08 A3004 RMK AO2
Pressure 30.04 in
Visibility 10.0 miles
Clouds Clear
Windchill 23 °F
Dew Point 18.0 °F
Humidity 58%
Rainfall in
Snow Depth Not available.
7:05 AM 5:56 PM
Waxing Crescent, 5% visible
METAR KGGE 101335Z AUTO 26013G19KT 10SM CLR 00/M08 A3004 RMK AO2

10-Day Weather Forecast

Almanac

Astronomy

Feb. 10, 2016 Rise Set
Actual Time
Civil Twilight
Nautical Twilight
Astronomical Twilight
Moon
Length of Visible Light
Length of Day
Tomorrow will be .
, % of the Moon is Illuminated

Today's Extremes

State Highs State Lows

Community

WunderPhotos

Upload Photos

1,891,845 photos uploaded!

WunderBlog® & News

Nearby

Air Quality

  Air Quality AQ Index Pollutant
Not available.

Snow Depth

Station Depth Elevation

Earthquake Activity

City Distance Mag. Time & Date
Minimum magnitude displayed is 2.5.

Coastal Water Temperatures

Place Temperature

Stations

Nearby Weather Stations

Station Location Temp. Windchill Dew Point Humidity Wind Precip. Elev Updated Type
                   

Watches & Warnings

Flood Warning
Issued: 8:30 PM EST Feb. 9, 2016 – National Weather Service

The Flood Warning continues for
the Santee river near Jamestown.
* At 7 PM Tuesday the stage was 13.7 feet.
* Flood stage is 10.0 feet.
* Minor flooding is occurring.
* Forecast, the river will remain nearly steady or slowly fall.
* At 12.0 feet, several dirt logging roads are impassable.


Lat... Lon 3347 8002 3354 7998 3325 7937 3321 7938
          3320 7951 3329 7976